Time;durP1;ratioP1;P1;durP2;ratioP2;P2;SDS_P1;SDS_P2;PMS_P1;PMS_P2;Temp;Humidity;BMP_temperature;BMP_pressure;BME280_temperature;BME280_humidity;BME280_pressure;Samples;Min_cycle;Max_cycle;Signal;HPM_P1;HPM_P2
2023/07/19 00:02:07;;;;;;;4.72;2.22;;;16.20;99.90;;;;;;5014209;28;20040;-64
2023/07/19 00:04:32;;;;;;;7.82;3.28;;;16.10;99.90;;;;;;5014319;28;20478;-64
2023/07/19 00:06:58;;;;;;;6.13;2.20;;;16.10;99.90;;;;;;5018715;28;20122;-65
2023/07/19 00:09:24;;;;;;;4.13;1.73;;;16.10;99.90;;;;;;5028073;28;20034;-64
2023/07/19 00:11:49;;;;;;;7.72;2.20;;;16.00;99.90;;;;;;5019986;28;20601;-64
2023/07/19 00:14:15;;;;;;;6.57;1.95;;;16.00;99.90;;;;;;5006853;28;20029;-66
2023/07/19 00:16:40;;;;;;;4.72;2.50;;;16.00;99.90;;;;;;5019931;28;20434;-65
2023/07/19 00:19:06;;;;;;;7.00;2.90;;;16.10;99.90;;;;;;5029755;28;20032;-66
2023/07/19 00:21:31;;;;;;;6.75;2.10;;;16.10;99.90;;;;;;5028911;28;20029;-65
2023/07/19 00:23:57;;;;;;;9.63;2.38;;;16.00;99.90;;;;;;5028177;28;20105;-65
2023/07/19 00:26:23;;;;;;;7.45;2.75;;;16.00;99.90;;;;;;5030302;28;20026;-65
2023/07/19 00:28:49;;;;;;;4.30;2.30;;;16.00;99.90;;;;;;5017012;28;20033;-66
2023/07/19 00:31:14;;;;;;;4.82;2.40;;;15.90;99.90;;;;;;5026101;28;20049;-65
2023/07/19 00:33:40;;;;;;;5.78;2.33;;;15.90;99.90;;;;;;5026169;28;20041;-65
2023/07/19 00:36:06;;;;;;;11.65;2.40;;;15.80;99.90;;;;;;5026474;28;20474;-65
2023/07/19 00:38:31;;;;;;;5.68;2.72;;;15.80;99.90;;;;;;5024122;28;20038;-65
2023/07/19 00:40:57;;;;;;;7.05;2.35;;;15.80;99.90;;;;;;5029397;28;20033;-65
2023/07/19 00:43:23;;;;;;;4.22;2.08;;;15.80;99.90;;;;;;5029253;28;20030;-65
2023/07/19 00:45:53;;;;;;;7.00;2.47;;;15.80;99.90;;;;;;5028556;28;20107;-65
2023/07/19 00:48:19;;;;;;;7.50;2.78;;;15.80;99.90;;;;;;5022466;28;20068;-64
2023/07/19 00:50:48;;;;;;;5.15;2.20;;;15.80;99.90;;;;;;5029321;28;20481;-64
2023/07/19 00:53:14;;;;;;;5.55;2.00;;;15.80;99.90;;;;;;5030429;28;20061;-65
2023/07/19 00:55:40;;;;;;;4.43;2.80;;;15.70;99.90;;;;;;5031280;28;20068;-64
2023/07/19 00:58:06;;;;;;;4.07;2.13;;;15.60;99.90;;;;;;5032161;28;20563;-61
2023/07/19 01:00:32;;;;;;;6.25;2.40;;;15.50;99.90;;;;;;5018760;28;20128;-64
2023/07/19 01:03:00;;;;;;;5.57;2.35;;;15.40;99.90;;;;;;5032201;28;20117;-65
2023/07/19 01:05:27;;;;;;;5.38;2.25;;;15.40;99.90;;;;;;5030634;28;20036;-65
2023/07/19 01:08:11;;;;;;;5.28;2.38;;;15.30;99.90;;;;;;5031395;28;20055;-64
2023/07/19 01:10:37;;;;;;;;;;;15.20;99.90;;;;;;5032494;28;20030;-65
2023/07/19 01:13:07;;;;;;;6.38;2.47;;;15.20;99.90;;;;;;5031907;28;19911;-64
2023/07/19 01:15:33;;;;;;;6.60;2.22;;;15.10;99.90;;;;;;5010734;28;20021;-64
2023/07/19 01:17:59;;;;;;;13.10;2.88;;;15.10;99.90;;;;;;5030784;28;20505;-65
2023/07/19 01:20:25;;;;;;;5.35;2.60;;;15.10;99.90;;;;;;5028984;28;20034;-65
2023/07/19 01:22:50;;;;;;;7.45;2.80;;;15.10;99.90;;;;;;5004976;28;20040;-64
2023/07/19 01:25:16;;;;;;;6.43;2.70;;;15.00;99.90;;;;;;5028495;28;20540;-65
2023/07/19 01:27:42;;;;;;;4.57;2.25;;;15.00;99.90;;;;;;5027803;28;20041;-65
2023/07/19 01:30:08;;;;;;;8.40;2.90;;;15.00;99.90;;;;;;5030464;28;20125;-65
2023/07/19 01:32:33;;;;;;;3.60;1.98;;;14.90;99.90;;;;;;5030383;28;20025;-65
2023/07/19 01:34:59;;;;;;;7.88;3.38;;;14.90;99.90;;;;;;5025224;28;20029;-66
2023/07/19 01:37:26;;;;;;;5.85;2.28;;;14.90;99.90;;;;;;5028307;28;20501;-65
2023/07/19 01:39:52;;;;;;;4.20;2.45;;;14.80;99.90;;;;;;5027890;28;20021;-65
2023/07/19 01:42:17;;;;;;;5.22;2.70;;;14.80;99.90;;;;;;5028420;28;20037;-65
2023/07/19 01:44:43;;;;;;;7.03;2.80;;;14.80;99.90;;;;;;5010534;28;20029;-62
2023/07/19 01:47:09;;;;;;;4.55;2.30;;;14.70;99.90;;;;;;5027662;28;20116;-65
2023/07/19 01:49:35;;;;;;;6.20;2.63;;;14.70;99.90;;;;;;5024284;28;20113;-65
2023/07/19 01:52:00;;;;;;;6.90;2.50;;;14.60;99.90;;;;;;5027901;28;20033;-65
2023/07/19 01:54:26;;;;;;;7.93;2.50;;;14.60;99.90;;;;;;5012226;28;20108;-64
2023/07/19 01:56:52;;;;;;;14.82;3.10;;;14.60;99.90;;;;;;5028322;28;20041;-65
2023/07/19 01:59:17;;;;;;;7.85;2.92;;;14.50;99.90;;;;;;5014454;28;20047;-65
2023/07/19 02:01:44;;;;;;;5.07;2.53;;;14.60;99.90;;;;;;5026999;28;20136;-65
2023/07/19 02:04:10;;;;;;;6.05;2.65;;;14.50;99.90;;;;;;5027800;28;20080;-66
2023/07/19 02:06:36;;;;;;;8.70;3.35;;;14.60;99.90;;;;;;5025293;28;20064;-65
2023/07/19 02:09:01;;;;;;;9.98;2.65;;;14.60;99.90;;;;;;5028756;28;20080;-66
2023/07/19 02:11:27;;;;;;;5.72;3.13;;;14.50;99.90;;;;;;5030835;28;20033;-65
2023/07/19 02:13:52;;;;;;;7.75;2.78;;;14.50;99.90;;;;;;5028796;28;20053;-67
2023/07/19 02:16:18;;;;;;;4.57;2.40;;;14.40;99.90;;;;;;5029141;28;20033;-65
2023/07/19 02:18:43;;;;;;;7.18;2.97;;;14.40;99.90;;;;;;5005878;28;20032;-64
2023/07/19 02:21:09;;;;;;;11.70;2.63;;;14.40;99.90;;;;;;5023667;28;20436;-66
2023/07/19 02:23:35;;;;;;;7.20;2.35;;;14.40;99.90;;;;;;5011180;28;20198;-65
2023/07/19 02:26:00;;;;;;;6.97;2.60;;;14.40;99.90;;;;;;5029473;28;20023;-66
2023/07/19 02:28:26;;;;;;;3.08;2.05;;;14.40;99.90;;;;;;5024364;28;20041;-66
2023/07/19 02:30:51;;;;;;;9.20;3.08;;;14.40;99.90;;;;;;5026418;28;20032;-65
2023/07/19 02:33:17;;;;;;;6.88;2.80;;;14.40;99.90;;;;;;5024254;28;20104;-67
2023/07/19 02:35:43;;;;;;;7.45;2.92;;;14.30;99.90;;;;;;5023316;28;20021;-66
2023/07/19 02:38:09;;;;;;;8.07;2.95;;;14.30;99.90;;;;;;5024826;28;20021;-66
2023/07/19 02:40:36;;;;;;;5.32;2.47;;;14.30;99.90;;;;;;5010267;28;20017;-66
2023/07/19 02:43:01;;;;;;;5.47;2.70;;;14.30;99.90;;;;;;5024281;28;20152;-66
2023/07/19 02:45:27;;;;;;;6.45;3.00;;;14.30;99.90;;;;;;5011431;28;20155;-66
2023/07/19 02:47:52;;;;;;;6.05;2.72;;;14.40;99.90;;;;;;5021476;28;20018;-66
2023/07/19 02:50:19;;;;;;;8.18;2.40;;;14.30;99.90;;;;;;5018635;28;20022;-65
2023/07/19 02:52:45;;;;;;;5.13;2.80;;;14.30;99.90;;;;;;5008286;28;20013;-62
2023/07/19 02:55:10;;;;;;;4.47;2.30;;;14.30;99.90;;;;;;5027853;28;20456;-65
2023/07/19 02:57:36;;;;;;;13.85;2.72;;;14.30;99.90;;;;;;5011486;28;20025;-66
2023/07/19 03:00:02;;;;;;;4.15;2.70;;;14.20;99.90;;;;;;5007016;28;20073;-65
2023/07/19 03:02:28;;;;;;;8.35;2.80;;;14.30;99.90;;;;;;5023886;28;20033;-65
2023/07/19 03:04:55;;;;;;;5.95;2.88;;;14.20;99.90;;;;;;5027141;28;20025;-66
2023/07/19 03:07:21;;;;;;;7.47;3.00;;;14.20;99.90;;;;;;5023523;28;20029;-66
2023/07/19 03:09:47;;;;;;;8.65;2.70;;;14.10;99.90;;;;;;5021701;28;20618;-66
2023/07/19 03:12:13;;;;;;;9.88;3.08;;;14.10;99.90;;;;;;5028165;28;20026;-66
2023/07/19 03:14:39;;;;;;;6.22;2.38;;;14.10;99.90;;;;;;5028885;28;20028;-66
2023/07/19 03:17:04;;;;;;;3.97;1.83;;;14.00;99.90;;;;;;5028659;28;20026;-67
2023/07/19 03:19:30;;;;;;;5.40;2.60;;;13.90;99.90;;;;;;5027417;28;20513;-66
2023/07/19 03:21:55;;;;;;;4.10;2.33;;;13.90;99.90;;;;;;5027110;28;20075;-66
2023/07/19 03:24:21;;;;;;;4.03;2.30;;;13.90;99.90;;;;;;5025499;28;20029;-65
2023/07/19 03:26:46;;;;;;;5.05;2.58;;;13.90;99.90;;;;;;5027928;28;20025;-66
2023/07/19 03:29:13;;;;;;;6.15;3.17;;;13.80;99.90;;;;;;5010356;28;20136;-65
2023/07/19 03:31:38;;;;;;;4.85;2.67;;;13.80;99.90;;;;;;5028341;28;20152;-66
2023/07/19 03:34:04;;;;;;;4.85;3.00;;;13.70;99.90;;;;;;5027695;28;20104;-65
2023/07/19 03:36:30;;;;;;;6.60;2.75;;;13.70;99.90;;;;;;5025633;28;20025;-66
2023/07/19 03:38:55;;;;;;;6.82;2.72;;;13.70;99.90;;;;;;5027942;28;20107;-67
2023/07/19 03:41:21;;;;;;;6.40;2.95;;;13.70;99.90;;;;;;5017841;28;20065;-66
2023/07/19 03:43:46;;;;;;;5.32;2.38;;;13.60;99.90;;;;;;5028168;28;20040;-66
2023/07/19 03:46:12;;;;;;;4.13;2.83;;;13.70;99.90;;;;;;5022596;28;20578;-66
2023/07/19 03:48:37;;;;;;;6.40;2.97;;;13.70;99.90;;;;;;5021537;28;20044;-66
2023/07/19 03:51:03;;;;;;;6.68;3.13;;;13.70;99.90;;;;;;5018354;28;20064;-67
2023/07/19 03:53:29;;;;;;;4.95;2.80;;;13.80;99.90;;;;;;4999625;28;20105;-66
2023/07/19 03:55:55;;;;;;;5.80;2.53;;;13.80;99.90;;;;;;5017576;28;20108;-66
2023/07/19 03:58:25;;;;;;;4.85;2.53;;;13.80;99.90;;;;;;5006709;28;20041;-65
2023/07/19 04:00:56;;;;;;;5.00;3.40;;;13.80;99.90;;;;;;5006916;28;20057;-66
2023/07/19 04:03:22;;;;;;;9.38;2.75;;;13.80;99.90;;;;;;5021342;28;20048;-65
2023/07/19 04:05:48;;;;;;;6.97;2.55;;;13.80;99.90;;;;;;5022825;28;20022;-66
2023/07/19 04:08:14;;;;;;;7.13;2.85;;;13.90;99.90;;;;;;5020631;28;20029;-66
2023/07/19 04:10:41;;;;;;;4.75;2.90;;;13.90;99.90;;;;;;5024418;28;20045;-66
2023/07/19 04:13:07;;;;;;;5.28;2.50;;;13.90;99.90;;;;;;5024554;28;20026;-66
2023/07/19 04:15:32;;;;;;;8.52;4.13;;;13.90;99.90;;;;;;5019211;28;20104;-65
2023/07/19 04:17:58;;;;;;;7.30;2.67;;;14.00;99.90;;;;;;4999577;28;20153;-67
2023/07/19 04:20:25;;;;;;;6.07;2.55;;;14.10;99.90;;;;;;5023150;28;20029;-66
2023/07/19 04:22:51;;;;;;;8.10;2.90;;;14.20;99.90;;;;;;5024779;28;20026;-66
2023/07/19 04:25:17;;;;;;;7.45;2.58;;;14.40;99.90;;;;;;5022224;28;20033;-65
2023/07/19 04:27:43;;;;;;;5.07;2.78;;;14.60;99.90;;;;;;5025883;28;20033;-66
2023/07/19 04:30:08;;;;;;;6.78;2.78;;;14.80;99.90;;;;;;5025080;28;20026;-66
2023/07/19 04:32:34;;;;;;;6.55;3.08;;;14.90;99.90;;;;;;5018858;28;20037;-66
2023/07/19 04:35:00;;;;;;;5.43;3.25;;;15.00;99.90;;;;;;5014559;28;20096;-66
2023/07/19 04:37:25;;;;;;;7.05;3.00;;;15.20;99.90;;;;;;5000717;28;20026;-66
2023/07/19 04:39:51;;;;;;;6.82;3.63;;;15.30;99.90;;;;;;5022316;28;20409;-66
2023/07/19 04:42:17;;;;;;;5.00;3.10;;;15.70;99.90;;;;;;5004009;28;20061;-65
2023/07/19 04:44:43;;;;;;;8.30;3.20;;;16.10;99.90;;;;;;5023187;28;20029;-66
2023/07/19 04:47:11;;;;;;;9.20;3.10;;;16.20;99.90;;;;;;5007089;28;20029;-65
2023/07/19 04:49:37;;;;;;;6.00;2.75;;;16.30;99.90;;;;;;5020648;28;20458;-66
2023/07/19 04:52:03;;;;;;;8.05;2.95;;;16.30;99.90;;;;;;4998373;28;20050;-66
2023/07/19 04:54:29;;;;;;;12.18;3.15;;;16.20;99.90;;;;;;5026781;28;20032;-66
2023/07/19 04:56:54;;;;;;;6.40;2.63;;;16.10;99.90;;;;;;5024153;28;20030;-66
2023/07/19 04:59:20;;;;;;;4.60;2.65;;;16.20;99.90;;;;;;5006496;28;20356;-66
2023/07/19 05:01:46;;;;;;;4.68;2.38;;;16.30;99.90;;;;;;5020417;28;20041;-67
2023/07/19 05:04:12;;;;;;;6.75;2.85;;;16.30;99.90;;;;;;5026296;28;20037;-66
2023/07/19 05:06:38;;;;;;;5.88;2.70;;;16.50;99.90;;;;;;5020472;28;20475;-67
2023/07/19 05:09:05;;;;;;;3.88;2.45;;;16.40;99.90;;;;;;5029846;28;20095;-65
2023/07/19 05:11:31;;;;;;;3.55;2.17;;;16.60;99.90;;;;;;5029288;28;20029;-66
2023/07/19 05:13:57;;;;;;;5.18;2.22;;;16.80;99.90;;;;;;5029583;28;20499;-66
2023/07/19 05:16:23;;;;;;;3.80;2.47;;;17.10;99.90;;;;;;5030578;28;20022;-65
2023/07/19 05:18:48;;;;;;;4.65;2.65;;;17.20;99.90;;;;;;5029853;28;20029;-65
2023/07/19 05:21:14;;;;;;;7.18;2.75;;;17.40;99.90;;;;;;5028030;28;20029;-66
2023/07/19 05:23:41;;;;;;;5.72;3.15;;;17.50;99.90;;;;;;5027084;28;20084;-65
2023/07/19 05:26:06;;;;;;;5.50;2.22;;;17.70;99.90;;;;;;5028305;28;20025;-66
2023/07/19 05:28:32;;;;;;;5.63;2.45;;;17.80;99.90;;;;;;5030518;28;20405;-66
2023/07/19 05:31:05;;;;;;;4.93;2.78;;;18.20;99.90;;;;;;5030200;28;20494;-66
2023/07/19 05:33:32;;;;;;;7.13;2.83;;;18.90;99.90;;;;;;5030112;28;20038;-66
2023/07/19 05:35:59;;;;;;;7.82;3.05;;;19.40;99.90;;;;;;5026469;28;20133;-66
2023/07/19 05:38:25;;;;;;;7.95;2.88;;;19.30;99.90;;;;;;5028997;28;20025;-66
2023/07/19 05:40:51;;;;;;;5.97;2.85;;;19.40;99.90;;;;;;5029064;28;20491;-66
2023/07/19 05:43:16;;;;;;;4.85;2.50;;;19.90;99.90;;;;;;5018566;28;20552;-68
2023/07/19 05:45:42;;;;;;;7.40;2.80;;;20.60;99.90;;;;;;5020413;28;20079;-65
2023/07/19 05:48:08;;;;;;;4.28;2.30;;;21.40;99.00;;;;;;5028522;28;20025;-66
2023/07/19 05:50:35;;;;;;;4.90;2.67;;;22.00;97.30;;;;;;5020263;28;20033;-66
2023/07/19 05:53:00;;;;;;;6.93;3.00;;;22.30;96.40;;;;;;5030839;28;20140;-66
2023/07/19 05:55:26;;;;;;;4.63;2.40;;;22.20;96.80;;;;;;5022620;28;20030;-67
2023/07/19 05:57:52;;;;;;;4.72;2.30;;;22.20;97.40;;;;;;5026625;28;20038;-66
2023/07/19 06:00:28;;;;;;;4.15;2.10;;;22.30;97.00;;;;;;5007198;28;20516;-66
2023/07/19 06:02:55;;;;;;;4.95;2.40;;;22.10;96.80;;;;;;5028559;28;20055;-64
2023/07/19 06:05:21;;;;;;;2.47;2.03;;;20.90;98.20;;;;;;5023601;28;20371;-66
2023/07/19 06:07:47;;;;;;;4.38;2.35;;;20.50;99.70;;;;;;5028832;28;20028;-66
2023/07/19 06:10:13;;;;;;;7.25;2.83;;;20.20;99.90;;;;;;5008832;28;20021;-66
2023/07/19 06:12:40;;;;;;;5.38;2.95;;;20.10;99.90;;;;;;5019155;28;20034;-66
2023/07/19 06:15:06;;;;;;;5.57;2.90;;;20.10;99.90;;;;;;5022620;28;20120;-67
2023/07/19 06:17:32;;;;;;;5.45;3.05;;;19.70;99.90;;;;;;5021502;28;20033;-66
2023/07/19 06:19:57;;;;;;;5.30;2.90;;;19.20;99.90;;;;;;5026146;28;20029;-65
2023/07/19 06:22:23;;;;;;;6.32;2.95;;;19.00;99.90;;;;;;5030419;28;20041;-66
2023/07/19 06:24:48;;;;;;;4.43;2.70;;;18.90;99.90;;;;;;5029216;28;20030;-66
2023/07/19 06:27:16;;;;;;;4.05;2.85;;;18.90;99.90;;;;;;5027699;28;20026;-66
2023/07/19 06:29:42;;;;;;;8.02;2.92;;;19.00;99.90;;;;;;5029968;28;20036;-66
2023/07/19 06:32:08;;;;;;;8.20;3.63;;;19.00;99.90;;;;;;5025748;28;20021;-66
2023/07/19 06:34:34;;;;;;;5.32;3.63;;;19.20;99.90;;;;;;5022524;28;20388;-66
2023/07/19 06:36:59;;;;;;;3.33;2.35;;;19.40;99.90;;;;;;5018974;28;20032;-66
2023/07/19 06:39:25;;;;;;;4.85;2.33;;;19.70;99.90;;;;;;5023890;28;20036;-67
2023/07/19 06:41:51;;;;;;;4.18;2.40;;;19.80;99.90;;;;;;5004359;28;20026;-66
2023/07/19 06:44:16;;;;;;;8.70;2.75;;;19.70;99.90;;;;;;5024805;28;20038;-65
2023/07/19 06:46:42;;;;;;;4.53;2.80;;;19.60;99.90;;;;;;5025150;28;20041;-67
2023/07/19 06:49:07;;;;;;;6.28;2.67;;;19.60;99.90;;;;;;5026947;28;20028;-67
2023/07/19 06:51:33;;;;;;;6.43;2.75;;;19.30;99.90;;;;;;5022854;28;20454;-66
2023/07/19 06:53:58;;;;;;;4.78;2.97;;;19.30;99.90;;;;;;5026860;28;20030;-66
2023/07/19 06:56:24;;;;;;;5.78;2.65;;;19.40;99.90;;;;;;5021912;28;20132;-66
2023/07/19 06:58:50;;;;;;;5.47;3.03;;;19.30;99.90;;;;;;5028267;28;20052;-66
2023/07/19 07:01:15;;;;;;;4.97;2.58;;;19.30;99.90;;;;;;5014065;28;20080;-66
2023/07/19 07:03:41;;;;;;;9.00;3.22;;;19.20;99.90;;;;;;5025900;28;20314;-66
2023/07/19 07:06:06;;;;;;;8.10;2.72;;;18.90;99.90;;;;;;5024817;28;20029;-66
2023/07/19 07:08:32;;;;;;;7.25;2.88;;;18.70;99.90;;;;;;5024971;28;20030;-67
2023/07/19 07:11:01;;;;;;;5.63;3.40;;;18.60;99.90;;;;;;5016503;28;20044;-66
2023/07/19 07:13:27;;;;;;;6.47;3.97;;;18.60;99.90;;;;;;5023310;28;20041;-66
2023/07/19 07:15:53;;;;;;;6.05;2.92;;;18.60;99.90;;;;;;5026324;28;20100;-66
2023/07/19 07:18:18;;;;;;;5.00;3.00;;;18.80;99.90;;;;;;5028773;28;20041;-66
2023/07/19 07:20:44;;;;;;;5.93;2.95;;;18.90;99.90;;;;;;5028502;28;20021;-65
2023/07/19 07:23:09;;;;;;;6.47;3.25;;;18.90;99.90;;;;;;5024244;28;20423;-66
2023/07/19 07:25:36;;;;;;;6.30;3.33;;;18.90;99.90;;;;;;5023262;28;20021;-66
2023/07/19 07:28:02;;;;;;;4.28;2.88;;;19.00;99.90;;;;;;5019656;28;20025;-65
2023/07/19 07:30:27;;;;;;;14.93;3.42;;;19.20;99.90;;;;;;5028107;28;20105;-67
2023/07/19 07:32:53;;;;;;;5.25;3.05;;;19.40;99.90;;;;;;5029683;28;20030;-66
2023/07/19 07:35:19;;;;;;;9.35;3.00;;;19.30;99.90;;;;;;5008334;28;20025;-66
2023/07/19 07:37:45;;;;;;;10.85;3.72;;;19.30;99.90;;;;;;5028219;28;20025;-67
2023/07/19 07:40:13;;;;;;;5.75;3.20;;;19.20;99.90;;;;;;5014880;28;20040;-65
2023/07/19 07:42:39;;;;;;;5.70;3.10;;;19.10;99.90;;;;;;5021722;28;20029;-66
2023/07/19 07:45:05;;;;;;;5.75;3.10;;;18.90;99.90;;;;;;5023344;28;20030;-66
2023/07/19 07:47:31;;;;;;;8.52;2.65;;;18.70;99.90;;;;;;5017975;28;20057;-66
2023/07/19 07:49:57;;;;;;;8.02;3.40;;;18.60;99.90;;;;;;5019469;28;20496;-67
2023/07/19 07:52:23;;;;;;;5.75;3.13;;;18.80;99.90;;;;;;5020471;28;20635;-66
2023/07/19 07:54:49;;;;;;;8.07;2.83;;;19.10;99.90;;;;;;5014103;28;20104;-65
2023/07/19 07:57:15;;;;;;;6.45;3.08;;;19.40;99.90;;;;;;5020286;28;20037;-66
2023/07/19 07:59:41;;;;;;;8.45;2.70;;;20.20;99.90;;;;;;5025789;28;20422;-66
2023/07/19 08:02:07;;;;;;;4.47;2.53;;;20.70;99.90;;;;;;5001337;28;20057;-66
2023/07/19 08:04:33;;;;;;;7.60;2.72;;;20.80;99.90;;;;;;5022396;28;20022;-66
2023/07/19 08:06:58;;;;;;;6.97;3.53;;;21.10;99.90;;;;;;5026133;28;20037;-66
2023/07/19 08:09:24;;;;;;;5.32;3.42;;;21.70;99.90;;;;;;5023460;28;20025;-66
2023/07/19 08:11:49;;;;;;;6.20;2.90;;;22.10;98.00;;;;;;5016604;28;20026;-66
2023/07/19 08:14:15;;;;;;;6.72;2.65;;;22.30;97.70;;;;;;5017237;28;20719;-66
2023/07/19 08:16:40;;;;;;;6.18;3.58;;;22.30;97.70;;;;;;5027288;28;20022;-67
2023/07/19 08:19:06;;;;;;;6.05;2.80;;;22.20;97.80;;;;;;5005050;28;20121;-66
2023/07/19 08:21:32;;;;;;;6.25;3.22;;;22.80;97.00;;;;;;5021776;28;20453;-67
2023/07/19 08:23:57;;;;;;;5.65;3.08;;;23.10;96.20;;;;;;5018494;28;20026;-66
2023/07/19 08:26:23;;;;;;;7.28;3.30;;;23.50;95.50;;;;;;5019968;28;20096;-66
2023/07/19 08:28:49;;;;;;;7.55;3.10;;;23.50;94.80;;;;;;5026170;28;20052;-64
2023/07/19 08:31:16;;;;;;;5.85;2.92;;;23.70;95.10;;;;;;5021654;28;20450;-67
2023/07/19 08:33:43;;;;;;;7.57;2.58;;;23.60;95.00;;;;;;5020677;28;20053;-67
2023/07/19 08:36:08;;;;;;;4.75;2.88;;;24.40;95.20;;;;;;5022859;28;20079;-66
2023/07/19 08:38:34;;;;;;;7.60;3.33;;;24.70;93.20;;;;;;5020134;28;20029;-66
2023/07/19 08:41:02;;;;;;;5.78;2.50;;;24.90;93.70;;;;;;5024104;28;20502;-66
2023/07/19 08:43:29;;;;;;;6.25;2.70;;;25.10;92.60;;;;;;5025675;28;20068;-67
2023/07/19 08:45:55;;;;;;;5.40;2.67;;;25.20;92.90;;;;;;5025083;28;20032;-67
2023/07/19 08:48:21;;;;;;;6.10;2.83;;;24.80;92.60;;;;;;5026890;28;20027;-67
2023/07/19 08:50:55;;;;;;;5.35;2.20;;;24.70;93.20;;;;;;5021528;28;20027;-63
2023/07/19 08:53:21;;;;;;;6.22;2.70;;;24.60;93.70;;;;;;5028646;28;20043;-67
2023/07/19 08:55:46;;;;;;;7.07;2.53;;;24.40;93.50;;;;;;5025744;28;20404;-66
2023/07/19 08:58:13;;;;;;;7.30;2.90;;;24.90;94.20;;;;;;5021932;28;20025;-67
2023/07/19 09:00:38;;;;;;;6.18;2.42;;;25.30;90.30;;;;;;5012449;28;20076;-67
2023/07/19 09:03:04;;;;;;;6.00;2.55;;;25.40;88.00;;;;;;5022705;28;20049;-68
2023/07/19 09:05:30;;;;;;;7.13;2.35;;;25.70;88.40;;;;;;5019792;28;20486;-67
2023/07/19 09:08:02;;;;;;;9.25;2.35;;;26.60;87.30;;;;;;5021170;28;20025;-68
2023/07/19 09:10:28;;;;;;;6.63;2.33;;;27.60;86.70;;;;;;5025424;28;20029;-67
2023/07/19 09:12:54;;;;;;;6.32;2.70;;;28.40;79.00;;;;;;5030780;28;20028;-67
2023/07/19 09:15:20;;;;;;;5.57;2.33;;;29.10;75.80;;;;;;5029646;28;20468;-65
2023/07/19 09:17:47;;;;;;;7.00;2.28;;;29.20;75.50;;;;;;5031282;28;20041;-64
2023/07/19 09:20:14;;;;;;;4.78;2.35;;;29.10;75.40;;;;;;5008572;28;20057;-64
2023/07/19 09:22:41;;;;;;;5.43;2.28;;;28.10;76.00;;;;;;5011288;28;20045;-64
2023/07/19 09:25:11;;;;;;;4.20;2.17;;;27.60;77.50;;;;;;5030849;28;20040;-64
2023/07/19 09:27:37;;;;;;;4.10;2.03;;;27.30;77.50;;;;;;5012576;28;20026;-67
2023/07/19 09:30:08;;;;;;;6.72;2.83;;;26.90;78.20;;;;;;5030478;28;20037;-66
2023/07/19 09:32:34;;;;;;;3.45;1.83;;;26.90;78.00;;;;;;5030475;28;20033;-67
2023/07/19 09:35:03;;;;;;;9.20;2.47;;;26.70;80.30;;;;;;5028883;28;20032;-67
2023/07/19 09:37:29;;;;;;;7.82;2.65;;;27.00;79.20;;;;;;5028300;28;20116;-67
2023/07/19 09:39:56;;;;;;;9.75;3.53;;;26.50;78.20;;;;;;5024792;28;20030;-67
2023/07/19 09:42:24;;;;;;;8.38;2.90;;;26.00;80.10;;;;;;5032156;28;20071;-66
2023/07/19 09:44:50;;;;;;;5.93;2.85;;;25.70;79.90;;;;;;5030947;28;20026;-63
2023/07/19 09:47:17;;;;;;;9.65;2.42;;;25.50;81.60;;;;;;5028956;28;20049;-66
2023/07/19 09:49:43;;;;;;;4.53;2.30;;;25.10;84.60;;;;;;5028139;28;20052;-66
2023/07/19 09:52:12;;;;;;;9.27;2.58;;;24.90;85.00;;;;;;5026448;28;20479;-66
2023/07/19 09:54:38;;;;;;;13.68;2.85;;;25.10;83.20;;;;;;4999461;28;20033;-66
2023/07/19 09:57:04;;;;;;;10.25;2.72;;;24.80;84.80;;;;;;5029102;28;20080;-67
2023/07/19 09:59:38;;;;;;;8.55;2.85;;;24.60;86.40;;;;;;5028901;28;20072;-66
2023/07/19 10:02:05;;;;;;;7.55;2.53;;;24.80;86.70;;;;;;5009199;28;20493;-67
2023/07/19 10:04:38;;;;;;;6.68;2.47;;;24.80;88.10;;;;;;5029072;28;20562;-66
2023/07/19 10:07:07;;;;;;;13.35;3.55;;;25.20;86.80;;;;;;5028934;28;20030;-67
2023/07/19 10:09:37;;;;;;;8.98;3.22;;;25.50;84.20;;;;;;5027712;28;20049;-66
2023/07/19 10:12:08;;;;;;;5.35;2.72;;;25.60;83.80;;;;;;5028458;28;20028;-66
2023/07/19 10:14:34;;;;;;;9.73;3.00;;;25.40;85.20;;;;;;5028962;28;20029;-67
2023/07/19 10:17:01;;;;;;;7.43;2.70;;;25.00;85.60;;;;;;5024858;28;20475;-66
2023/07/19 10:19:27;;;;;;;6.07;3.15;;;25.00;85.50;;;;;;5027098;28;20033;-67
2023/07/19 10:22:07;;;;;;;9.82;3.95;;;24.90;86.30;;;;;;5028376;28;20047;-66
2023/07/19 10:24:35;;;;;;;10.20;3.28;;;25.00;85.90;;;;;;5029788;28;20033;-67
2023/07/19 10:27:08;;;;;;;9.15;3.35;;;24.70;87.50;;;;;;5026502;28;20364;-66
2023/07/19 10:29:44;;;;;;;5.90;2.65;;;25.00;86.20;;;;;;5023613;28;20051;-66
2023/07/19 10:32:11;;;;;;;6.53;2.70;;;25.00;86.80;;;;;;5016272;28;21107;-66
2023/07/19 10:34:37;;;;;;;5.75;2.80;;;25.40;86.70;;;;;;5019316;28;20430;-66
2023/07/19 10:37:05;;;;;;;7.57;2.60;;;25.60;84.50;;;;;;5021013;28;20029;-66
2023/07/19 10:39:32;;;;;;;4.97;2.50;;;25.50;84.70;;;;;;5023432;28;20079;-67
2023/07/19 10:41:58;;;;;;;7.85;2.78;;;25.70;85.10;;;;;;5023585;28;20064;-66
2023/07/19 10:44:27;;;;;;;8.38;2.17;;;26.20;85.00;;;;;;5026301;28;20021;-67
2023/07/19 10:46:58;;;;;;;6.65;2.47;;;26.60;84.80;;;;;;5023769;28;20105;-66
2023/07/19 10:49:24;;;;;;;12.68;3.03;;;27.00;78.80;;;;;;5019675;28;20045;-67
2023/07/19 10:51:57;;;;;;;10.45;2.92;;;26.50;79.90;;;;;;5021376;28;20039;-67
2023/07/19 10:54:25;;;;;;;11.10;3.15;;;26.80;81.10;;;;;;5028921;28;20037;-67
2023/07/19 10:56:52;;;;;;;10.25;2.35;;;26.90;79.40;;;;;;5011756;28;20044;-64
2023/07/19 10:59:19;;;;;;;19.15;2.33;;;26.90;79.90;;;;;;5026237;28;20112;-67
2023/07/19 11:01:48;;;;;;;7.57;2.42;;;26.90;80.40;;;;;;5009507;28;20067;-66
2023/07/19 11:04:14;;;;;;;8.45;2.80;;;26.60;81.30;;;;;;5010182;28;20144;-66
2023/07/19 11:06:59;;;;;;;8.93;2.78;;;25.90;80.90;;;;;;5025818;28;20041;-66
2023/07/19 11:09:25;;;;;;;8.43;2.35;;;25.30;82.90;;;;;;5027258;28;20009;-66
2023/07/19 11:11:51;;;;;;;9.15;3.22;;;25.20;83.70;;;;;;5027588;28;20044;-66
2023/07/19 11:14:33;;;;;;;10.30;3.13;;;25.10;83.70;;;;;;5029040;28;20432;-66
2023/07/19 11:16:59;;;;;;;9.57;2.40;;;25.00;83.40;;;;;;5028429;28;20080;-68
2023/07/19 11:19:40;;;;;;;5.20;2.10;;;25.20;83.80;;;;;;5029877;28;20590;-66
2023/07/19 11:22:07;;;;;;;7.45;2.17;;;25.20;84.30;;;;;;5026471;28;20043;-66
2023/07/19 11:24:40;;;;;;;9.10;2.50;;;25.90;85.20;;;;;;5027631;28;20029;-66
2023/07/19 11:27:07;;;;;;;;;;;26.50;82.10;;;;;;5026355;28;20406;-66
2023/07/19 11:29:33;;;;;;;12.93;3.22;;;26.40;81.00;;;;;;5034403;28;20336;-66
2023/07/19 11:32:19;;;;;;;8.60;2.70;;;26.20;82.50;;;;;;5028836;28;20103;-66
2023/07/19 11:34:56;;;;;;;9.68;3.60;;;26.10;83.60;;;;;;5030323;28;20020;-67
2023/07/19 11:37:33;;;;;;;8.05;2.70;;;26.20;84.20;;;;;;5027815;28;20568;-67
2023/07/19 11:40:09;;;;;;;7.15;3.03;;;26.10;82.80;;;;;;5026671;28;20038;-66
2023/07/19 11:42:54;;;;;;;9.50;2.70;;;25.90;81.40;;;;;;5033396;28;20029;-68
2023/07/19 11:45:25;;;;;;;7.05;2.70;;;25.60;81.70;;;;;;5028445;28;20033;-66
2023/07/19 11:47:57;;;;;;;8.00;2.38;;;25.40;83.80;;;;;;5025423;28;20414;-66
2023/07/19 11:50:23;;;;;;;9.55;2.40;;;25.60;84.30;;;;;;5008910;28;20022;-66
2023/07/19 11:52:51;;;;;;;12.70;3.08;;;25.90;83.00;;;;;;5010882;28;20090;-65
2023/07/19 11:55:19;;;;;;;10.23;2.88;;;26.10;81.60;;;;;;5026323;28;20032;-66
2023/07/19 11:57:48;;;;;;;8.50;2.25;;;26.10;82.40;;;;;;5020649;28;20437;-66
2023/07/19 12:00:17;;;;;;;5.70;2.20;;;26.30;81.90;;;;;;5005652;28;20103;-66
2023/07/19 12:02:46;;;;;;;10.57;2.10;;;26.20;81.70;;;;;;5020494;28;20021;-66
2023/07/19 12:05:14;;;;;;;10.57;2.50;;;26.50;80.50;;;;;;5025494;28;20041;-66
2023/07/19 12:07:40;;;;;;;6.78;1.95;;;26.90;79.30;;;;;;5008846;28;20030;-66
2023/07/19 12:10:06;;;;;;;6.05;1.67;;;27.00;79.90;;;;;;5026994;28;20026;-67
2023/07/19 12:12:32;;;;;;;7.55;2.22;;;27.00;78.90;;;;;;5027199;28;20394;-66
2023/07/19 12:15:00;;;;;;;4.55;2.03;;;26.60;78.70;;;;;;5033055;28;20033;-66
2023/07/19 12:17:26;;;;;;;4.97;2.15;;;26.50;79.50;;;;;;5033029;28;20026;-66
2023/07/19 12:19:53;;;;;;;11.38;2.55;;;26.40;78.60;;;;;;5031997;28;20104;-66
2023/07/19 12:22:19;;;;;;;4.95;1.80;;;26.60;77.80;;;;;;5029896;28;20033;-67
2023/07/19 12:24:44;;;;;;;4.72;2.00;;;26.50;78.20;;;;;;5010215;28;20025;-66
2023/07/19 12:27:10;;;;;;;5.97;2.70;;;26.40;77.40;;;;;;5026100;28;20423;-67
2023/07/19 12:29:35;;;;;;;5.38;2.30;;;26.00;78.80;;;;;;5026017;28;20109;-67
2023/07/19 12:32:03;;;;;;;7.05;2.45;;;26.00;79.10;;;;;;5013668;28;20021;-66
2023/07/19 12:34:29;;;;;;;6.05;2.33;;;25.60;79.90;;;;;;5006369;28;20107;-66
2023/07/19 12:36:55;;;;;;;11.50;3.10;;;25.30;81.10;;;;;;5030722;28;20057;-67
2023/07/19 12:39:26;;;;;;;4.90;2.30;;;25.10;81.70;;;;;;5027338;28;20032;-67
2023/07/19 12:41:52;;;;;;;5.75;2.53;;;25.10;82.20;;;;;;5022823;28;20028;-66
2023/07/19 12:44:20;;;;;;;4.50;2.13;;;25.30;82.20;;;;;;5025938;28;20033;-67